sensor_id;sensor_type;location;lat;lon;timestamp;pressure;altitude;pressure_sealevel;temperature;humidity
1616;BME280;801;47.982;7.810;2023-01-28T00:01:23;99140.34;;;1.08;100.00
1616;BME280;801;47.982;7.810;2023-01-28T00:03:50;99145.09;;;1.34;100.00
1616;BME280;801;47.982;7.810;2023-01-28T00:06:18;99148.91;;;1.10;100.00
1616;BME280;801;47.982;7.810;2023-01-28T00:08:45;99145.25;;;1.11;100.00
1616;BME280;801;47.982;7.810;2023-01-28T00:11:12;99143.69;;;1.16;100.00
1616;BME280;801;47.982;7.810;2023-01-28T00:13:39;99142.84;;;1.16;100.00
1616;BME280;801;47.982;7.810;2023-01-28T00:16:07;99138.34;;;0.95;100.00
1616;BME280;801;47.982;7.810;2023-01-28T00:18:34;99147.63;;;1.06;100.00
1616;BME280;801;47.982;7.810;2023-01-28T00:21:03;99138.47;;;1.23;100.00
1616;BME280;801;47.982;7.810;2023-01-28T00:23:34;99135.22;;;1.42;100.00
1616;BME280;801;47.982;7.810;2023-01-28T00:26:02;99143.38;;;1.41;100.00
1616;BME280;801;47.982;7.810;2023-01-28T00:28:29;99136.09;;;1.13;100.00
1616;BME280;801;47.982;7.810;2023-01-28T00:30:56;99133.69;;;0.97;100.00
1616;BME280;801;47.982;7.810;2023-01-28T00:33:22;99138.66;;;1.21;100.00
1616;BME280;801;47.982;7.810;2023-01-28T00:35:56;99125.53;;;1.50;100.00
1616;BME280;801;47.982;7.810;2023-01-28T00:38:23;99134.22;;;1.65;100.00
1616;BME280;801;47.982;7.810;2023-01-28T00:40:51;99139.28;;;1.81;100.00
1616;BME280;801;47.982;7.810;2023-01-28T00:43:17;99140.53;;;1.64;100.00
1616;BME280;801;47.982;7.810;2023-01-28T00:45:44;99135.91;;;1.51;100.00
1616;BME280;801;47.982;7.810;2023-01-28T00:48:10;99139.16;;;1.68;100.00
1616;BME280;801;47.982;7.810;2023-01-28T00:50:37;99135.50;;;1.48;100.00
1616;BME280;801;47.982;7.810;2023-01-28T00:53:04;99136.97;;;1.78;100.00
1616;BME280;801;47.982;7.810;2023-01-28T00:55:31;99138.56;;;1.51;100.00
1616;BME280;801;47.982;7.810;2023-01-28T00:57:58;99132.88;;;1.33;100.00
1616;BME280;801;47.982;7.810;2023-01-28T01:00:25;99133.25;;;1.30;100.00
1616;BME280;801;47.982;7.810;2023-01-28T01:02:52;99133.66;;;1.48;100.00
1616;BME280;801;47.982;7.810;2023-01-28T01:05:18;99129.13;;;1.27;100.00
1616;BME280;801;47.982;7.810;2023-01-28T01:07:45;99130.06;;;1.34;100.00
1616;BME280;801;47.982;7.810;2023-01-28T01:10:13;99123.25;;;1.47;100.00
1616;BME280;801;47.982;7.810;2023-01-28T01:12:41;99124.75;;;1.34;100.00
1616;BME280;801;47.982;7.810;2023-01-28T01:15:09;99127.50;;;1.26;100.00
1616;BME280;801;47.982;7.810;2023-01-28T01:17:36;99131.72;;;1.20;100.00
1616;BME280;801;47.982;7.810;2023-01-28T01:20:03;99140.63;;;1.34;100.00
1616;BME280;801;47.982;7.810;2023-01-28T01:22:32;99139.25;;;1.60;100.00
1616;BME280;801;47.982;7.810;2023-01-28T01:24:58;99140.78;;;1.69;100.00
1616;BME280;801;47.982;7.810;2023-01-28T01:27:25;99139.09;;;1.61;100.00
1616;BME280;801;47.982;7.810;2023-01-28T01:29:51;99139.66;;;1.57;100.00
1616;BME280;801;47.982;7.810;2023-01-28T01:32:19;99125.34;;;1.15;100.00
1616;BME280;801;47.982;7.810;2023-01-28T01:34:46;99126.38;;;1.35;100.00
1616;BME280;801;47.982;7.810;2023-01-28T01:37:13;99129.91;;;1.21;100.00
1616;BME280;801;47.982;7.810;2023-01-28T01:39:39;99139.50;;;1.07;100.00
1616;BME280;801;47.982;7.810;2023-01-28T01:42:09;99131.59;;;1.29;100.00
1616;BME280;801;47.982;7.810;2023-01-28T01:44:58;99139.06;;;1.40;100.00
1616;BME280;801;47.982;7.810;2023-01-28T01:47:30;99144.59;;;1.23;100.00
1616;BME280;801;47.982;7.810;2023-01-28T01:50:01;99135.19;;;1.21;100.00
1616;BME280;801;47.982;7.810;2023-01-28T01:52:31;99130.78;;;1.28;100.00
1616;BME280;801;47.982;7.810;2023-01-28T01:55:00;99132.69;;;1.34;100.00
1616;BME280;801;47.982;7.810;2023-01-28T01:57:31;99142.66;;;1.54;100.00
1616;BME280;801;47.982;7.810;2023-01-28T01:59:59;99136.44;;;1.25;100.00
1616;BME280;801;47.982;7.810;2023-01-28T02:02:34;99133.63;;;1.27;100.00
1616;BME280;801;47.982;7.810;2023-01-28T02:05:02;99136.66;;;1.45;100.00
1616;BME280;801;47.982;7.810;2023-01-28T02:07:29;99135.66;;;1.46;100.00
1616;BME280;801;47.982;7.810;2023-01-28T02:09:56;99133.47;;;1.50;100.00
1616;BME280;801;47.982;7.810;2023-01-28T02:12:25;99132.94;;;1.39;100.00
1616;BME280;801;47.982;7.810;2023-01-28T02:14:54;99135.56;;;1.18;100.00
1616;BME280;801;47.982;7.810;2023-01-28T02:17:24;99131.09;;;1.18;100.00
1616;BME280;801;47.982;7.810;2023-01-28T02:19:56;99132.78;;;1.41;100.00
1616;BME280;801;47.982;7.810;2023-01-28T02:22:43;99133.41;;;1.43;100.00
1616;BME280;801;47.982;7.810;2023-01-28T02:25:33;99131.84;;;1.34;100.00
1616;BME280;801;47.982;7.810;2023-01-28T02:28:15;99135.63;;;1.24;100.00
1616;BME280;801;47.982;7.810;2023-01-28T02:30:51;99128.03;;;1.36;100.00
1616;BME280;801;47.982;7.810;2023-01-28T02:33:23;99129.72;;;1.44;100.00
1616;BME280;801;47.982;7.810;2023-01-28T02:35:52;99126.56;;;1.34;100.00
1616;BME280;801;47.982;7.810;2023-01-28T02:38:22;99138.63;;;1.58;100.00
1616;BME280;801;47.982;7.810;2023-01-28T02:40:53;99130.75;;;1.43;100.00
1616;BME280;801;47.982;7.810;2023-01-28T02:43:33;99136.31;;;1.12;100.00
1616;BME280;801;47.982;7.810;2023-01-28T02:46:01;99140.09;;;1.24;100.00
1616;BME280;801;47.982;7.810;2023-01-28T02:48:47;99142.16;;;1.43;100.00
1616;BME280;801;47.982;7.810;2023-01-28T02:51:23;99139.59;;;1.50;100.00
1616;BME280;801;47.982;7.810;2023-01-28T02:53:59;99147.84;;;1.62;100.00
1616;BME280;801;47.982;7.810;2023-01-28T02:56:38;99148.44;;;1.42;100.00
1616;BME280;801;47.982;7.810;2023-01-28T02:59:12;99136.78;;;1.37;100.00
1616;BME280;801;47.982;7.810;2023-01-28T03:02:06;99138.06;;;1.41;100.00
1616;BME280;801;47.982;7.810;2023-01-28T03:04:41;99144.88;;;1.50;100.00
1616;BME280;801;47.982;7.810;2023-01-28T03:07:11;99141.47;;;1.35;100.00
1616;BME280;801;47.982;7.810;2023-01-28T03:09:41;99147.66;;;1.27;100.00
1616;BME280;801;47.982;7.810;2023-01-28T03:12:10;99148.03;;;1.60;100.00
1616;BME280;801;47.982;7.810;2023-01-28T03:14:58;99148.53;;;1.49;100.00
1616;BME280;801;47.982;7.810;2023-01-28T03:17:46;99156.16;;;1.37;100.00
1616;BME280;801;47.982;7.810;2023-01-28T03:20:34;99140.97;;;1.46;100.00
1616;BME280;801;47.982;7.810;2023-01-28T03:23:27;99147.75;;;1.98;100.00
1616;BME280;801;47.982;7.810;2023-01-28T03:26:14;99149.03;;;1.59;100.00
1616;BME280;801;47.982;7.810;2023-01-28T03:29:05;99154.78;;;1.63;100.00
1616;BME280;801;47.982;7.810;2023-01-28T03:31:53;99156.31;;;1.72;100.00
1616;BME280;801;47.982;7.810;2023-01-28T03:34:39;99159.19;;;1.56;100.00
1616;BME280;801;47.982;7.810;2023-01-28T03:37:23;99162.13;;;1.61;100.00
1616;BME280;801;47.982;7.810;2023-01-28T03:39:51;99157.50;;;1.48;100.00
1616;BME280;801;47.982;7.810;2023-01-28T03:42:17;99162.78;;;1.12;100.00
1616;BME280;801;47.982;7.810;2023-01-28T03:44:44;99153.16;;;1.26;100.00
1616;BME280;801;47.982;7.810;2023-01-28T03:47:24;99153.13;;;1.40;100.00
1616;BME280;801;47.982;7.810;2023-01-28T03:49:52;99156.44;;;1.64;100.00
1616;BME280;801;47.982;7.810;2023-01-28T03:52:21;99157.97;;;1.37;100.00
1616;BME280;801;47.982;7.810;2023-01-28T03:54:48;99163.38;;;1.29;100.00
1616;BME280;801;47.982;7.810;2023-01-28T03:57:19;99163.19;;;1.30;100.00
1616;BME280;801;47.982;7.810;2023-01-28T03:59:45;99162.31;;;1.23;100.00
1616;BME280;801;47.982;7.810;2023-01-28T04:02:14;99167.41;;;1.24;100.00
1616;BME280;801;47.982;7.810;2023-01-28T04:04:43;99169.06;;;1.26;100.00
1616;BME280;801;47.982;7.810;2023-01-28T04:07:10;99168.59;;;1.58;100.00
1616;BME280;801;47.982;7.810;2023-01-28T04:09:39;99167.63;;;1.08;100.00
1616;BME280;801;47.982;7.810;2023-01-28T04:12:06;99163.34;;;1.43;100.00
1616;BME280;801;47.982;7.810;2023-01-28T04:14:32;99160.81;;;1.35;100.00
1616;BME280;801;47.982;7.810;2023-01-28T04:16:59;99166.88;;;1.14;100.00
1616;BME280;801;47.982;7.810;2023-01-28T04:19:26;99160.31;;;0.95;100.00
1616;BME280;801;47.982;7.810;2023-01-28T04:21:54;99167.47;;;1.31;100.00
1616;BME280;801;47.982;7.810;2023-01-28T04:24:22;99177.09;;;1.02;100.00
1616;BME280;801;47.982;7.810;2023-01-28T04:26:49;99167.63;;;1.08;100.00
1616;BME280;801;47.982;7.810;2023-01-28T04:29:15;99167.25;;;1.11;100.00
1616;BME280;801;47.982;7.810;2023-01-28T04:31:42;99179.03;;;1.09;100.00
1616;BME280;801;47.982;7.810;2023-01-28T04:34:08;99169.63;;;1.42;100.00
1616;BME280;801;47.982;7.810;2023-01-28T04:36:35;99173.38;;;1.12;100.00
1616;BME280;801;47.982;7.810;2023-01-28T04:39:03;99175.00;;;1.13;100.00
1616;BME280;801;47.982;7.810;2023-01-28T04:41:29;99169.72;;;1.13;100.00
1616;BME280;801;47.982;7.810;2023-01-28T04:43:56;99180.13;;;0.99;100.00
1616;BME280;801;47.982;7.810;2023-01-28T04:46:22;99176.63;;;1.14;100.00
1616;BME280;801;47.982;7.810;2023-01-28T04:48:49;99181.75;;;1.30;100.00
1616;BME280;801;47.982;7.810;2023-01-28T04:51:15;99190.41;;;1.24;100.00
1616;BME280;801;47.982;7.810;2023-01-28T04:53:41;99179.59;;;1.40;100.00
1616;BME280;801;47.982;7.810;2023-01-28T04:56:09;99190.47;;;1.45;100.00
1616;BME280;801;47.982;7.810;2023-01-28T04:58:36;99177.41;;;1.44;100.00
1616;BME280;801;47.982;7.810;2023-01-28T05:01:02;99186.16;;;1.44;100.00
1616;BME280;801;47.982;7.810;2023-01-28T05:03:29;99190.25;;;1.26;100.00
1616;BME280;801;47.982;7.810;2023-01-28T05:05:55;99195.22;;;1.35;100.00
1616;BME280;801;47.982;7.810;2023-01-28T05:08:22;99192.03;;;1.25;100.00
1616;BME280;801;47.982;7.810;2023-01-28T05:10:48;99190.88;;;1.28;100.00
1616;BME280;801;47.982;7.810;2023-01-28T05:13:16;99195.06;;;1.22;100.00
1616;BME280;801;47.982;7.810;2023-01-28T05:15:43;99195.94;;;1.59;100.00
1616;BME280;801;47.982;7.810;2023-01-28T05:18:09;99201.56;;;1.56;100.00
1616;BME280;801;47.982;7.810;2023-01-28T05:20:35;99198.81;;;1.64;100.00
1616;BME280;801;47.982;7.810;2023-01-28T05:23:02;99200.69;;;1.49;100.00
1616;BME280;801;47.982;7.810;2023-01-28T05:25:28;99205.41;;;1.68;100.00
1616;BME280;801;47.982;7.810;2023-01-28T05:27:55;99214.19;;;1.54;100.00
1616;BME280;801;47.982;7.810;2023-01-28T05:30:23;99211.53;;;1.54;100.00
1616;BME280;801;47.982;7.810;2023-01-28T05:32:53;99214.75;;;1.49;100.00
1616;BME280;801;47.982;7.810;2023-01-28T05:35:20;99209.94;;;1.38;100.00
1616;BME280;801;47.982;7.810;2023-01-28T05:37:47;99210.72;;;1.53;100.00
1616;BME280;801;47.982;7.810;2023-01-28T05:40:14;99206.44;;;1.52;100.00
1616;BME280;801;47.982;7.810;2023-01-28T05:42:41;99215.88;;;1.25;100.00
1616;BME280;801;47.982;7.810;2023-01-28T05:45:09;99216.97;;;1.45;100.00
1616;BME280;801;47.982;7.810;2023-01-28T05:47:36;99219.47;;;1.54;100.00
1616;BME280;801;47.982;7.810;2023-01-28T05:50:03;99213.13;;;1.33;100.00
1616;BME280;801;47.982;7.810;2023-01-28T05:52:30;99214.78;;;1.34;100.00
1616;BME280;801;47.982;7.810;2023-01-28T05:54:56;99223.88;;;1.47;100.00
1616;BME280;801;47.982;7.810;2023-01-28T05:57:23;99216.34;;;1.65;100.00
1616;BME280;801;47.982;7.810;2023-01-28T05:59:50;99214.94;;;1.48;100.00
1616;BME280;801;47.982;7.810;2023-01-28T06:02:16;99220.09;;;1.34;100.00
1616;BME280;801;47.982;7.810;2023-01-28T06:04:44;99213.44;;;1.23;100.00
1616;BME280;801;47.982;7.810;2023-01-28T06:07:10;99222.91;;;1.33;100.00
1616;BME280;801;47.982;7.810;2023-01-28T06:09:39;99220.97;;;1.41;100.00
1616;BME280;801;47.982;7.810;2023-01-28T06:12:06;99224.72;;;1.47;100.00
1616;BME280;801;47.982;7.810;2023-01-28T06:14:33;99229.56;;;1.43;100.00
1616;BME280;801;47.982;7.810;2023-01-28T06:16:59;99225.47;;;1.26;100.00
1616;BME280;801;47.982;7.810;2023-01-28T06:19:26;99230.00;;;1.47;100.00
1616;BME280;801;47.982;7.810;2023-01-28T06:21:53;99235.75;;;1.51;100.00
1616;BME280;801;47.982;7.810;2023-01-28T06:24:20;99235.13;;;1.49;100.00
1616;BME280;801;47.982;7.810;2023-01-28T06:26:46;99235.19;;;1.70;100.00
1616;BME280;801;47.982;7.810;2023-01-28T06:29:13;99243.72;;;1.51;100.00
1616;BME280;801;47.982;7.810;2023-01-28T06:31:40;99244.13;;;1.69;100.00
1616;BME280;801;47.982;7.810;2023-01-28T06:34:07;99242.91;;;1.35;100.00
1616;BME280;801;47.982;7.810;2023-01-28T06:36:34;99245.47;;;1.29;100.00
1616;BME280;801;47.982;7.810;2023-01-28T06:39:03;99244.91;;;1.33;100.00
1616;BME280;801;47.982;7.810;2023-01-28T06:41:30;99247.81;;;1.38;100.00
1616;BME280;801;47.982;7.810;2023-01-28T06:43:56;99244.56;;;1.36;100.00
1616;BME280;801;47.982;7.810;2023-01-28T06:46:23;99253.91;;;1.54;100.00
1616;BME280;801;47.982;7.810;2023-01-28T06:48:49;99257.53;;;1.31;100.00
1616;BME280;801;47.982;7.810;2023-01-28T06:51:16;99263.38;;;1.41;100.00
1616;BME280;801;47.982;7.810;2023-01-28T06:53:42;99270.66;;;1.54;100.00
1616;BME280;801;47.982;7.810;2023-01-28T06:56:10;99260.63;;;1.50;100.00
1616;BME280;801;47.982;7.810;2023-01-28T06:58:36;99264.09;;;1.35;100.00
1616;BME280;801;47.982;7.810;2023-01-28T07:01:03;99263.72;;;1.53;100.00
1616;BME280;801;47.982;7.810;2023-01-28T07:03:30;99273.09;;;1.56;100.00
1616;BME280;801;47.982;7.810;2023-01-28T07:05:56;99271.22;;;1.35;100.00
1616;BME280;801;47.982;7.810;2023-01-28T07:08:23;99271.81;;;1.52;100.00
1616;BME280;801;47.982;7.810;2023-01-28T07:10:49;99275.75;;;1.56;100.00
1616;BME280;801;47.982;7.810;2023-01-28T07:13:17;99275.50;;;1.51;100.00
1616;BME280;801;47.982;7.810;2023-01-28T07:15:43;99284.47;;;1.50;100.00
1616;BME280;801;47.982;7.810;2023-01-28T07:18:10;99282.25;;;1.38;100.00
1616;BME280;801;47.982;7.810;2023-01-28T07:20:36;99275.75;;;1.56;100.00
1616;BME280;801;47.982;7.810;2023-01-28T07:23:03;99288.75;;;1.51;100.00
1616;BME280;801;47.982;7.810;2023-01-28T07:25:29;99280.53;;;1.31;100.00
1616;BME280;801;47.982;7.810;2023-01-28T07:27:56;99277.50;;;1.49;100.00
1616;BME280;801;47.982;7.810;2023-01-28T07:30:24;99292.75;;;1.32;100.00
1616;BME280;801;47.982;7.810;2023-01-28T07:32:54;99298.97;;;1.54;100.00
1616;BME280;801;47.982;7.810;2023-01-28T07:35:21;99289.81;;;1.71;100.00
1616;BME280;801;47.982;7.810;2023-01-28T07:37:51;99296.31;;;1.69;100.00
1616;BME280;801;47.982;7.810;2023-01-28T07:40:19;99291.38;;;1.51;100.00
1616;BME280;801;47.982;7.810;2023-01-28T07:42:45;99290.03;;;1.55;100.00
1616;BME280;801;47.982;7.810;2023-01-28T07:45:12;99299.50;;;1.64;100.00
1616;BME280;801;47.982;7.810;2023-01-28T07:47:40;99299.50;;;1.64;100.00
1616;BME280;801;47.982;7.810;2023-01-28T07:50:08;99294.38;;;1.77;100.00
1616;BME280;801;47.982;7.810;2023-01-28T07:52:36;99301.59;;;1.69;100.00
1616;BME280;801;47.982;7.810;2023-01-28T07:55:09;99306.34;;;1.73;100.00
1616;BME280;801;47.982;7.810;2023-01-28T07:57:35;99305.69;;;1.86;100.00
1616;BME280;801;47.982;7.810;2023-01-28T08:00:03;99307.19;;;1.59;100.00
1616;BME280;801;47.982;7.810;2023-01-28T08:02:29;99303.16;;;1.63;100.00
1616;BME280;801;47.982;7.810;2023-01-28T08:04:57;99310.56;;;2.04;100.00
1616;BME280;801;47.982;7.810;2023-01-28T08:07:26;99314.44;;;1.86;100.00
1616;BME280;801;47.982;7.810;2023-01-28T08:09:53;99310.81;;;2.09;100.00
1616;BME280;801;47.982;7.810;2023-01-28T08:12:19;99315.78;;;2.12;100.00
1616;BME280;801;47.982;7.810;2023-01-28T08:14:46;99313.59;;;2.01;100.00
1616;BME280;801;47.982;7.810;2023-01-28T08:17:12;99317.00;;;1.95;100.00
1616;BME280;801;47.982;7.810;2023-01-28T08:19:39;99328.56;;;2.08;100.00
1616;BME280;801;47.982;7.810;2023-01-28T08:22:06;99328.75;;;2.07;100.00
1616;BME280;801;47.982;7.810;2023-01-28T08:24:33;99334.88;;;2.07;100.00
1616;BME280;801;47.982;7.810;2023-01-28T08:26:59;99343.59;;;2.23;100.00
1616;BME280;801;47.982;7.810;2023-01-28T08:29:26;99339.38;;;2.50;100.00
1616;BME280;801;47.982;7.810;2023-01-28T08:31:52;99337.75;;;2.70;100.00
1616;BME280;801;47.982;7.810;2023-01-28T08:34:19;99334.97;;;2.36;100.00
1616;BME280;801;47.982;7.810;2023-01-28T08:36:45;99339.94;;;2.45;100.00
1616;BME280;801;47.982;7.810;2023-01-28T08:39:13;99344.31;;;2.32;100.00
1616;BME280;801;47.982;7.810;2023-01-28T08:41:40;99340.63;;;2.11;100.00
1616;BME280;801;47.982;7.810;2023-01-28T08:44:06;99333.78;;;2.60;100.00
1616;BME280;801;47.982;7.810;2023-01-28T08:46:33;99348.81;;;2.31;100.00
1616;BME280;801;47.982;7.810;2023-01-28T08:48:59;99344.16;;;2.18;100.00
1616;BME280;801;47.982;7.810;2023-01-28T08:51:26;99352.13;;;2.18;100.00
1616;BME280;801;47.982;7.810;2023-01-28T08:53:52;99346.47;;;2.21;100.00
1616;BME280;801;47.982;7.810;2023-01-28T08:56:20;99345.38;;;2.16;100.00
1616;BME280;801;47.982;7.810;2023-01-28T08:58:46;99350.09;;;2.20;100.00
1616;BME280;801;47.982;7.810;2023-01-28T09:01:13;99348.06;;;2.37;100.00
1616;BME280;801;47.982;7.810;2023-01-28T09:03:39;99355.44;;;2.42;100.00
1616;BME280;801;47.982;7.810;2023-01-28T09:06:06;99339.59;;;2.48;100.00
1616;BME280;801;47.982;7.810;2023-01-28T09:08:32;99347.22;;;2.58;100.00
1616;BME280;801;47.982;7.810;2023-01-28T09:10:59;99355.38;;;2.57;100.00
1616;BME280;801;47.982;7.810;2023-01-28T09:13:27;99358.91;;;2.42;100.00
1616;BME280;801;47.982;7.810;2023-01-28T09:15:54;99358.22;;;2.55;100.00
1616;BME280;801;47.982;7.810;2023-01-28T09:18:21;99351.16;;;2.62;100.00
1616;BME280;801;47.982;7.810;2023-01-28T09:20:47;99356.47;;;2.84;100.00
1616;BME280;801;47.982;7.810;2023-01-28T09:23:14;99357.78;;;2.73;100.00
1616;BME280;801;47.982;7.810;2023-01-28T09:25:40;99362.53;;;2.78;100.00
1616;BME280;801;47.982;7.810;2023-01-28T09:28:07;99358.41;;;2.54;100.00
1616;BME280;801;47.982;7.810;2023-01-28T09:30:35;99351.28;;;2.76;100.00
1616;BME280;801;47.982;7.810;2023-01-28T09:33:02;99361.94;;;2.82;100.00
1616;BME280;801;47.982;7.810;2023-01-28T09:35:28;99362.47;;;2.71;100.00
1616;BME280;801;47.982;7.810;2023-01-28T09:37:58;99365.28;;;2.91;100.00
1616;BME280;801;47.982;7.810;2023-01-28T09:40:31;99372.22;;;2.92;100.00
1616;BME280;801;47.982;7.810;2023-01-28T09:43:06;99376.03;;;3.04;100.00
1616;BME280;801;47.982;7.810;2023-01-28T09:45:37;99372.47;;;3.53;100.00
1616;BME280;801;47.982;7.810;2023-01-28T09:48:11;99372.53;;;3.32;100.00
1616;BME280;801;47.982;7.810;2023-01-28T09:50:41;99365.69;;;2.66;100.00
1616;BME280;801;47.982;7.810;2023-01-28T09:53:11;99373.50;;;2.96;100.00
1616;BME280;801;47.982;7.810;2023-01-28T09:55:42;99370.25;;;3.01;100.00
1616;BME280;801;47.982;7.810;2023-01-28T09:58:11;99367.19;;;2.76;100.00
1616;BME280;801;47.982;7.810;2023-01-28T10:00:46;99368.81;;;2.77;99.76
1616;BME280;801;47.982;7.810;2023-01-28T10:03:27;99369.72;;;2.84;98.13
1616;BME280;801;47.982;7.810;2023-01-28T10:06:07;99366.44;;;2.82;96.48
1616;BME280;801;47.982;7.810;2023-01-28T10:08:54;99372.69;;;2.96;94.86
1616;BME280;801;47.982;7.810;2023-01-28T10:11:35;99369.09;;;2.82;95.36
1616;BME280;801;47.982;7.810;2023-01-28T10:14:09;99371.25;;;2.72;95.50
1616;BME280;801;47.982;7.810;2023-01-28T10:16:42;99372.91;;;3.01;94.02
1616;BME280;801;47.982;7.810;2023-01-28T10:19:15;99376.38;;;3.01;93.61
1616;BME280;801;47.982;7.810;2023-01-28T10:21:47;99375.53;;;2.94;93.06
1616;BME280;801;47.982;7.810;2023-01-28T10:24:19;99372.00;;;2.87;93.47
1616;BME280;801;47.982;7.810;2023-01-28T10:26:49;99369.56;;;2.92;93.72
1616;BME280;801;47.982;7.810;2023-01-28T10:29:17;99369.38;;;2.94;93.04
1616;BME280;801;47.982;7.810;2023-01-28T10:31:51;99368.38;;;2.95;93.13
1616;BME280;801;47.982;7.810;2023-01-28T10:34:18;99376.94;;;3.18;92.69
1616;BME280;801;47.982;7.810;2023-01-28T10:36:45;99365.19;;;2.78;92.71
1616;BME280;801;47.982;7.810;2023-01-28T10:39:13;99370.66;;;2.98;94.24
1616;BME280;801;47.982;7.810;2023-01-28T10:41:40;99365.09;;;3.21;93.36
1616;BME280;801;47.982;7.810;2023-01-28T10:44:12;99360.91;;;3.05;93.11
1616;BME280;801;47.982;7.810;2023-01-28T10:46:43;99351.59;;;3.16;89.36
1616;BME280;801;47.982;7.810;2023-01-28T10:49:14;99356.16;;;3.00;92.15
1616;BME280;801;47.982;7.810;2023-01-28T10:51:44;99351.59;;;3.50;91.25
1616;BME280;801;47.982;7.810;2023-01-28T10:54:19;99355.00;;;3.38;90.22
1616;BME280;801;47.982;7.810;2023-01-28T10:56:46;99351.84;;;3.56;89.79
1616;BME280;801;47.982;7.810;2023-01-28T10:59:19;99353.06;;;3.53;90.30
1616;BME280;801;47.982;7.810;2023-01-28T11:01:49;99351.91;;;3.69;88.06
1616;BME280;801;47.982;7.810;2023-01-28T11:04:22;99353.09;;;3.60;89.22
1616;BME280;801;47.982;7.810;2023-01-28T11:06:54;99342.66;;;4.00;91.57
1616;BME280;801;47.982;7.810;2023-01-28T11:09:22;99336.91;;;4.03;87.98
1616;BME280;801;47.982;7.810;2023-01-28T11:11:49;99339.50;;;4.91;80.53
1616;BME280;801;47.982;7.810;2023-01-28T11:14:20;99345.38;;;5.59;73.42
1616;BME280;801;47.982;7.810;2023-01-28T11:16:48;99349.16;;;6.03;68.49
1616;BME280;801;47.982;7.810;2023-01-28T11:19:19;99338.47;;;6.74;65.18
1616;BME280;801;47.982;7.810;2023-01-28T11:21:52;99343.66;;;6.94;64.95
1616;BME280;801;47.982;7.810;2023-01-28T11:24:21;99346.22;;;7.07;62.73
1616;BME280;801;47.982;7.810;2023-01-28T11:26:51;99347.84;;;7.52;59.95
1616;BME280;801;47.982;7.810;2023-01-28T11:29:23;99339.81;;;6.83;59.43
1616;BME280;801;47.982;7.810;2023-01-28T11:31:51;99343.31;;;7.52;59.20
1616;BME280;801;47.982;7.810;2023-01-28T11:34:24;99347.28;;;8.65;56.48
1616;BME280;801;47.982;7.810;2023-01-28T11:36:52;99343.88;;;8.58;53.85
1616;BME280;801;47.982;7.810;2023-01-28T11:39:21;99340.97;;;9.25;51.89
1616;BME280;801;47.982;7.810;2023-01-28T11:41:50;99347.94;;;7.63;55.38
1616;BME280;801;47.982;7.810;2023-01-28T11:44:20;99348.13;;;7.00;57.50
1616;BME280;801;47.982;7.810;2023-01-28T11:46:54;99352.47;;;5.92;63.88
1616;BME280;801;47.982;7.810;2023-01-28T11:49:35;99340.47;;;5.56;70.20
1616;BME280;801;47.982;7.810;2023-01-28T11:52:12;99338.06;;;5.28;71.40
1616;BME280;801;47.982;7.810;2023-01-28T11:54:49;99343.00;;;5.11;74.75
1616;BME280;801;47.982;7.810;2023-01-28T11:57:23;99338.28;;;5.13;79.45
1616;BME280;801;47.982;7.810;2023-01-28T11:59:57;99336.47;;;4.81;76.48
1616;BME280;801;47.982;7.810;2023-01-28T12:02:36;99336.22;;;4.82;77.29
1616;BME280;801;47.982;7.810;2023-01-28T12:05:35;99324.38;;;4.91;77.42
1616;BME280;801;47.982;7.810;2023-01-28T12:08:09;99327.66;;;4.87;78.54
1616;BME280;801;47.982;7.810;2023-01-28T12:10:45;99325.81;;;4.81;80.38
1616;BME280;801;47.982;7.810;2023-01-28T12:13:23;99317.81;;;4.81;79.73
1616;BME280;801;47.982;7.810;2023-01-28T12:16:06;99326.19;;;4.97;77.72
1616;BME280;801;47.982;7.810;2023-01-28T12:22:04;99323.09;;;5.34;76.70
1616;BME280;801;47.982;7.810;2023-01-28T12:24:49;99325.38;;;4.97;75.72
1616;BME280;801;47.982;7.810;2023-01-28T12:27:30;99323.34;;;4.79;77.08
1616;BME280;801;47.982;7.810;2023-01-28T12:30:08;99325.19;;;4.65;78.46
1616;BME280;801;47.982;7.810;2023-01-28T12:32:51;99332.56;;;4.70;79.02
1616;BME280;801;47.982;7.810;2023-01-28T12:35:32;99321.47;;;4.60;80.67
1616;BME280;801;47.982;7.810;2023-01-28T12:38:09;99333.34;;;4.57;83.60
1616;BME280;801;47.982;7.810;2023-01-28T12:40:48;99321.09;;;4.63;84.17
1616;BME280;801;47.982;7.810;2023-01-28T12:43:20;99332.34;;;4.58;84.16
1616;BME280;801;47.982;7.810;2023-01-28T12:45:53;99330.91;;;4.42;85.10
1616;BME280;801;47.982;7.810;2023-01-28T12:48:25;99330.06;;;4.55;84.94
1616;BME280;801;47.982;7.810;2023-01-28T12:50:57;99330.88;;;4.35;87.47
1616;BME280;801;47.982;7.810;2023-01-28T12:53:33;99330.44;;;4.25;89.32
1616;BME280;801;47.982;7.810;2023-01-28T12:56:07;99326.69;;;4.13;88.90
1616;BME280;801;47.982;7.810;2023-01-28T12:58:38;99330.41;;;4.12;89.87
1616;BME280;801;47.982;7.810;2023-01-28T13:01:08;99333.47;;;4.09;89.98
1616;BME280;801;47.982;7.810;2023-01-28T13:03:39;99330.59;;;4.17;89.19
1616;BME280;801;47.982;7.810;2023-01-28T13:06:12;99323.19;;;3.99;89.51
1616;BME280;801;47.982;7.810;2023-01-28T13:08:42;99320.56;;;4.06;89.55
1616;BME280;801;47.982;7.810;2023-01-28T13:11:12;99338.16;;;4.07;90.14
1616;BME280;801;47.982;7.810;2023-01-28T13:13:41;99338.38;;;4.12;90.35
1616;BME280;801;47.982;7.810;2023-01-28T13:16:11;99338.44;;;3.77;91.63
1616;BME280;801;47.982;7.810;2023-01-28T13:18:43;99344.06;;;3.95;91.58
1616;BME280;801;47.982;7.810;2023-01-28T13:21:16;99341.53;;;3.81;92.78
1616;BME280;801;47.982;7.810;2023-01-28T13:24:18;99342.25;;;4.03;91.79
1616;BME280;801;47.982;7.810;2023-01-28T13:26:46;99352.47;;;4.06;91.43
1616;BME280;801;47.982;7.810;2023-01-28T13:29:20;99349.09;;;3.84;92.44
1616;BME280;801;47.982;7.810;2023-01-28T13:31:49;99353.28;;;4.00;90.59
1616;BME280;801;47.982;7.810;2023-01-28T13:34:29;99337.22;;;3.73;92.09
1616;BME280;801;47.982;7.810;2023-01-28T13:37:00;99343.25;;;4.02;91.30
1616;BME280;801;47.982;7.810;2023-01-28T13:39:29;99344.66;;;3.91;92.50
1616;BME280;801;47.982;7.810;2023-01-28T13:42:08;99353.66;;;3.97;93.05
1616;BME280;801;47.982;7.810;2023-01-28T13:44:36;99350.00;;;3.98;92.42
1616;BME280;801;47.982;7.810;2023-01-28T13:47:14;99349.19;;;4.04;92.87
1616;BME280;801;47.982;7.810;2023-01-28T13:49:43;99352.50;;;4.19;92.54
1616;BME280;801;47.982;7.810;2023-01-28T13:52:15;99361.47;;;4.05;91.93
1616;BME280;801;47.982;7.810;2023-01-28T13:54:49;99360.78;;;4.51;90.73
1616;BME280;801;47.982;7.810;2023-01-28T13:57:37;99359.94;;;4.44;90.11